Time;durP1;ratioP1;P1;durP2;ratioP2;P2;SDS_P1;SDS_P2;PMS_P1;PMS_P2;Temp;Humidity;BMP_temperature;BMP_pressure;BME280_temperature;BME280_humidity;BME280_pressure;Samples;Min_cycle;Max_cycle;Signal;HPM_P1;HPM_P2
2024/01/09 00:00:28;;;;;;;20.93;10.73;;;;;;;-10.15;76.47;98523.91;6183562;28;20224;-94
2024/01/09 00:03:31;;;;;;;23.80;11.83;;;;;;;-10.49;77.01;98462.44;6175139;28;20212;-94
2024/01/09 00:06:35;;;;;;;22.43;11.30;;;;;;;-9.40;76.17;98625.06;6196912;28;20349;-95
2024/01/09 00:09:37;;;;;;;25.23;12.97;;;;;;;-11.42;76.64;98331.59;6182480;28;20193;-94
2024/01/09 00:12:46;;;;;;;23.93;12.77;;;;;;;-11.17;76.14;98336.97;6185546;28;20212;-95
2024/01/09 00:15:51;;;;;;;23.43;11.37;;;;;;;-10.46;76.47;98464.84;6176173;28;20208;-96
2024/01/09 00:18:54;;;;;;;21.20;11.63;;;;;;;-9.64;76.42;98616.25;6181455;28;20251;-93
2024/01/09 00:21:57;;;;;;;25.70;13.53;;;;;;;-9.05;74.28;98709.81;6177029;28;20197;-95
2024/01/09 00:25:00;;;;;;;20.37;11.93;;;;;;;-9.56;74.50;98638.97;6183418;28;20369;-95
2024/01/09 00:28:03;;;;;;;21.60;12.30;;;;;;;-11.22;74.85;98401.53;6197992;28;20680;-95
2024/01/09 00:31:06;;;;;;;19.37;10.90;;;;;;;-11.18;76.36;98367.00;6183581;28;20697;-96
2024/01/09 00:34:09;;;;;;;20.57;12.00;;;;;;;-8.95;76.87;98751.38;6172031;28;20576;-95
2024/01/09 00:37:12;;;;;;;21.87;12.43;;;;;;;-9.59;77.29;98670.94;6182684;28;20612;-96
2024/01/09 00:40:15;;;;;;;25.93;12.87;;;;;;;-9.87;77.78;98621.00;6183204;28;20584;-95
2024/01/09 00:43:18;;;;;;;24.80;12.27;;;;;;;-10.11;78.20;98606.97;6183836;28;20311;-95
2024/01/09 00:46:25;;;;;;;23.87;13.20;;;;;;;-11.38;77.98;98369.88;6174125;28;20217;-95
2024/01/09 00:49:28;;;;;;;26.23;12.17;;;;;;;-10.68;76.48;98484.16;6183949;28;20207;-95
2024/01/09 00:52:31;;;;;;;28.80;12.77;;;;;;;-10.30;76.89;98549.75;6184447;28;20200;-95
2024/01/09 00:55:34;;;;;;;21.47;11.70;;;;;;;-10.10;77.09;98595.75;6174455;28;20217;-95
2024/01/09 00:58:37;;;;;;;27.47;13.23;;;;;;;-8.38;76.95;98883.06;6175325;28;20224;-96
2024/01/09 01:01:40;;;;;;;27.97;13.20;;;;;;;-10.22;75.15;98535.47;6175162;28;20201;-95
2024/01/09 01:04:42;;;;;;;23.60;12.90;;;;;;;-10.15;74.69;98538.50;6177466;28;20287;-95
2024/01/09 01:07:45;;;;;;;22.80;12.40;;;;;;;-10.39;73.65;98509.94;6194908;28;20207;-95
2024/01/09 01:10:51;;;;;;;24.30;12.33;;;;;;;-10.11;73.64;98550.31;6184023;28;20216;-96
2024/01/09 01:13:54;;;;;;;25.57;12.90;;;;;;;-11.02;75.21;98425.28;6180734;28;20280;-95
2024/01/09 01:16:57;;;;;;;28.53;13.30;;;;;;;-9.52;74.80;98656.75;6197439;28;20200;-95
2024/01/09 01:20:00;;;;;;;22.70;12.83;;;;;;;-10.74;74.65;98501.69;6204922;28;20688;-92
2024/01/09 01:23:03;;;;;;;27.70;13.13;;;;;;;-8.79;74.33;98797.75;6209380;28;20195;-94
2024/01/09 01:26:06;;;;;;;23.57;12.13;;;;;;;-10.14;74.09;98577.09;6177133;28;20235;-94
2024/01/09 01:29:09;;;;;;;23.60;12.80;;;;;;;-9.67;73.96;98671.38;6187891;28;20212;-94
2024/01/09 01:32:12;;;;;;;23.27;13.07;;;;;;;-10.11;75.36;98598.44;6178864;28;20201;-96
2024/01/09 01:35:15;;;;;;;25.47;12.70;;;;;;;-10.13;75.79;98619.13;6179299;28;20212;-93
2024/01/09 01:38:18;;;;;;;26.10;12.53;;;;;;;-9.80;75.53;98664.44;6177390;28;20724;-94
2024/01/09 01:41:24;;;;;;;26.40;12.50;;;;;;;-10.09;74.75;98664.41;6170908;28;20204;-95
2024/01/09 01:44:27;;;;;;;23.40;13.33;;;;;;;-9.96;74.51;98634.44;6209954;28;20585;-95
2024/01/09 01:47:32;;;;;;;26.07;12.80;;;;;;;-10.41;74.54;98591.59;6183939;28;20224;-94
2024/01/09 01:50:39;;;;;;;25.70;13.17;;;;;;;-8.66;73.75;98843.41;6185770;28;20354;-95
2024/01/09 01:53:43;;;;;;;23.90;11.60;;;;;;;-8.55;74.64;98880.69;6194201;28;20666;-95
2024/01/09 01:56:47;;;;;;;25.37;13.27;;;;;;;-10.90;75.26;98549.78;6183413;28;20415;-95
2024/01/09 01:59:51;;;;;;;21.87;11.67;;;;;;;-11.26;74.50;98456.63;6200307;28;20359;-94
2024/01/09 02:02:55;;;;;;;25.33;12.63;;;;;;;-11.76;74.84;98420.88;6187773;28;20212;-95
2024/01/09 02:05:58;;;;;;;20.73;11.67;;;;;;;-8.95;75.82;98911.44;6191611;28;20222;-94
2024/01/09 02:09:05;;;;;;;27.00;13.53;;;;;;;-10.53;74.42;98575.13;6177249;28;20201;-95
2024/01/09 02:12:13;;;;;;;25.87;13.77;;;;;;;-9.68;75.10;98772.88;6180785;28;20723;-94
2024/01/09 02:15:16;;;;;;;23.97;12.33;;;;;;;-10.62;75.68;98603.13;6192394;28;20747;-95
2024/01/09 02:18:19;;;;;;;24.73;13.27;;;;;;;-9.85;76.25;98739.50;6211322;28;20569;-95
2024/01/09 02:21:26;;;;;;;24.57;13.20;;;;;;;-10.54;75.54;98608.66;6187937;28;20201;-95
2024/01/09 02:24:28;;;;;;;23.43;11.97;;;;;;;-10.75;76.08;98582.38;6186670;28;20208;-95
2024/01/09 02:28:10;;;;;;;20.70;11.73;;;;;;;-9.44;74.96;98762.88;6180473;28;20211;-96
2024/01/09 02:31:14;;;;;;;24.90;12.90;;;;;;;-8.71;73.24;98858.34;6201357;28;20201;-94
2024/01/09 02:34:18;;;;;;;26.33;12.53;;;;;;;-9.76;73.69;98707.19;6200728;28;20204;-96
2024/01/09 02:37:21;;;;;;;24.27;12.27;;;;;;;-11.35;73.53;98487.16;6180233;28;20201;-95
2024/01/09 02:40:27;;;;;;;22.33;11.90;;;;;;;-10.23;74.87;98703.84;6185897;28;20201;-95
2024/01/09 02:43:30;;;;;;;26.17;12.67;;;;;;;-9.09;75.13;98845.13;6188298;28;20213;-94
2024/01/09 02:46:33;;;;;;;24.70;12.30;;;;;;;-11.27;72.96;98467.00;6194185;28;20301;-94
2024/01/09 02:49:36;;;;;;;24.57;13.23;;;;;;;-10.05;73.26;98649.59;6183028;28;20205;-96
2024/01/09 02:52:39;;;;;;;25.30;13.20;;;;;;;-11.50;72.57;98440.00;6187844;28;20200;-96
2024/01/09 02:55:42;;;;;;;25.40;11.87;;;;;;;-9.80;73.16;98745.22;6190553;28;20235;-96
2024/01/09 02:58:45;;;;;;;26.37;13.83;;;;;;;-10.53;73.70;98605.19;6186404;28;20237;-96
2024/01/09 03:01:48;;;;;;;26.90;12.83;;;;;;;-12.01;74.40;98398.31;6191470;28;20219;-94
2024/01/09 03:04:51;;;;;;;24.53;12.60;;;;;;;-12.13;75.12;98427.19;6175348;28;20232;-95
2024/01/09 03:07:54;;;;;;;25.33;12.80;;;;;;;-10.34;75.10;98703.66;6185640;28;20702;-92
2024/01/09 03:10:57;;;;;;;19.70;11.67;;;;;;;-9.74;74.55;98778.38;6190781;28;20206;-93
2024/01/09 03:14:00;;;;;;;20.83;12.77;;;;;;;-10.93;73.89;98573.97;6186431;28;20292;-93
2024/01/09 03:17:04;;;;;;;26.57;13.23;;;;;;;-9.12;75.09;98922.72;6180420;28;20200;-94
2024/01/09 03:20:08;;;;;;;22.60;12.30;;;;;;;-9.02;74.13;98910.13;6188241;28;20237;-93
2024/01/09 03:23:12;;;;;;;23.07;12.60;;;;;;;-9.81;75.04;98773.66;6170506;28;20194;-93
2024/01/09 03:26:15;;;;;;;24.00;12.67;;;;;;;-11.71;74.88;98507.06;6187119;28;20356;-93
2024/01/09 03:29:18;;;;;;;21.50;12.00;;;;;;;-10.86;77.00;98633.63;6190946;28;20343;-94
2024/01/09 03:32:20;;;;;;;30.67;12.63;;;;;;;-11.55;75.88;98570.50;6184994;28;20219;-93
2024/01/09 03:35:23;;;;;;;21.87;12.63;;;;;;;-12.05;74.50;98412.22;6194155;28;20282;-92
2024/01/09 03:38:26;;;;;;;22.47;12.10;;;;;;;-10.26;74.38;98682.59;6192153;28;20208;-93
2024/01/09 03:41:30;;;;;;;22.33;11.87;;;;;;;-9.34;75.42;98850.06;6181103;28;20346;-94
2024/01/09 03:44:32;;;;;;;24.73;12.00;;;;;;;-12.11;76.07;98433.94;6191606;28;20315;-93
2024/01/09 03:47:35;;;;;;;25.97;12.00;;;;;;;-11.08;75.95;98600.50;6183017;28;20225;-92
2024/01/09 03:50:38;;;;;;;26.70;12.10;;;;;;;-9.61;74.88;98801.69;6184004;28;20181;-92
2024/01/09 03:53:41;;;;;;;22.40;11.77;;;;;;;-10.94;73.27;98523.41;6190984;28;20340;-93
2024/01/09 03:56:44;;;;;;;25.07;12.23;;;;;;;-12.55;73.81;98356.72;6185089;28;20233;-93
2024/01/09 03:59:47;;;;;;;27.93;12.77;;;;;;;-10.50;74.12;98674.50;6185987;28;20212;-93
2024/01/09 04:02:50;;;;;;;24.77;12.20;;;;;;;-11.76;74.76;98479.97;6175273;28;20201;-94
2024/01/09 04:05:53;;;;;;;28.57;13.93;;;;;;;-9.22;75.87;98896.59;6183649;28;20300;-93
2024/01/09 04:08:59;;;;;;;26.47;11.73;;;;;;;-9.05;75.59;98887.09;6168434;28;20202;-93
2024/01/09 04:12:04;;;;;;;26.37;12.37;;;;;;;-12.12;76.80;98428.84;6180233;28;20263;-94
2024/01/09 04:15:08;;;;;;;23.03;12.20;;;;;;;-11.01;76.75;98609.56;6188709;28;20208;-96
2024/01/09 04:18:12;;;;;;;25.50;12.37;;;;;;;-10.93;76.02;98610.00;6190522;28;20185;-92
2024/01/09 04:21:16;;;;;;;27.10;13.70;;;;;;;-11.06;76.03;98612.41;6173812;28;20205;-94
2024/01/09 04:24:18;;;;;;;24.60;13.23;;;;;;;-11.94;76.07;98535.75;6167773;28;20276;-95
2024/01/09 04:27:21;;;;;;;23.07;11.10;;;;;;;-12.12;78.19;98519.56;6196176;28;20276;-95
2024/01/09 04:30:26;;;;;;;27.07;12.63;;;;;;;-12.68;77.78;98401.88;6190004;28;20201;-95
2024/01/09 04:33:29;;;;;;;25.10;12.57;;;;;;;-12.53;76.41;98408.78;6183736;28;20247;-95
2024/01/09 04:36:32;;;;;;;24.70;12.33;;;;;;;-10.09;76.55;98810.47;6177527;28;20200;-95
2024/01/09 04:39:35;;;;;;;25.33;12.60;;;;;;;-12.41;77.49;98438.09;6194668;28;20202;-95
2024/01/09 04:42:37;;;;;;;25.87;12.83;;;;;;;-10.73;78.29;98732.44;6179719;28;20212;-95
2024/01/09 04:45:40;;;;;;;25.27;12.93;;;;;;;-10.72;78.84;98757.25;6198259;28;20483;-93
2024/01/09 04:48:43;;;;;;;22.53;11.03;;;;;;;-11.77;79.63;98583.63;6207045;28;20197;-94
2024/01/09 04:51:46;;;;;;;26.47;13.47;;;;;;;-13.37;77.59;98359.25;6211563;28;20213;-93
2024/01/09 04:54:49;;;;;;;26.80;12.40;;;;;;;-11.95;77.52;98557.22;6175931;28;20317;-93
2024/01/09 04:57:52;;;;;;;22.43;12.87;;;;;;;-11.19;79.38;98694.53;6174624;28;20237;-93
2024/01/09 05:00:55;;;;;;;23.27;11.83;;;;;;;-12.46;78.17;98507.66;6195662;28;20220;-93
2024/01/09 05:03:58;;;;;;;25.57;12.13;;;;;;;-11.56;79.76;98653.66;6214050;28;20228;-93
2024/01/09 05:07:01;;;;;;;26.60;12.37;;;;;;;-13.18;80.01;98443.72;6230971;28;20211;-94
2024/01/09 05:10:04;;;;;;;26.63;12.93;;;;;;;-9.90;80.61;98935.66;6238125;28;20180;-93
2024/01/09 05:13:07;;;;;;;24.23;12.57;;;;;;;-12.90;79.32;98431.19;6214454;28;20220;-93
2024/01/09 05:16:10;;;;;;;22.47;12.07;;;;;;;-12.81;78.13;98440.13;6221423;28;20210;-95
2024/01/09 05:19:15;;;;;;;27.33;12.73;;;;;;;-11.65;78.66;98664.41;6230922;28;20201;-93
2024/01/09 05:22:18;;;;;;;25.33;12.27;;;;;;;-9.54;77.61;98939.72;6216743;28;20212;-92
2024/01/09 05:25:21;;;;;;;27.57;12.30;;;;;;;-10.76;76.67;98773.75;6190774;28;20348;-93
2024/01/09 05:28:24;;;;;;;21.13;11.43;;;;;;;-13.20;77.60;98401.94;6187989;28;20207;-94
2024/01/09 05:31:27;;;;;;;23.03;12.60;;;;;;;-12.09;78.10;98621.31;6199965;28;20224;-93
2024/01/09 05:34:30;;;;;;;25.57;11.87;;;;;;;-11.23;79.08;98690.47;6187240;28;20189;-92
2024/01/09 05:37:33;;;;;;;28.90;12.23;;;;;;;-10.99;78.54;98756.94;6176878;28;20237;-93
2024/01/09 05:40:36;;;;;;;25.30;13.03;;;;;;;-12.02;78.14;98646.63;6187447;28;20292;-93
2024/01/09 05:43:39;;;;;;;21.73;11.27;;;;;;;-12.11;79.09;98608.56;6193500;28;20228;-95
2024/01/09 05:46:41;;;;;;;27.70;13.00;;;;;;;-12.87;77.74;98505.41;6196101;28;20228;-95
2024/01/09 05:49:44;;;;;;;25.17;12.73;;;;;;;-12.12;79.62;98612.00;6176967;28;20200;-95
2024/01/09 05:52:47;;;;;;;23.40;12.90;;;;;;;-10.68;79.01;98854.81;6176621;28;20414;-94
2024/01/09 05:55:49;;;;;;;23.53;12.70;;;;;;;-10.51;79.33;98882.25;6202964;28;20323;-95
2024/01/09 05:58:52;;;;;;;25.83;11.77;;;;;;;-9.93;78.63;98955.59;6202105;28;20252;-94
2024/01/09 06:01:55;;;;;;;23.37;13.07;;;;;;;-11.86;77.84;98694.66;6187310;28;20189;-95
2024/01/09 06:04:58;;;;;;;24.77;11.83;;;;;;;-11.89;79.73;98672.50;6215361;28;20216;-93
2024/01/09 06:08:01;;;;;;;27.27;12.60;;;;;;;-13.21;79.21;98472.88;6199008;28;20192;-93
2024/01/09 06:11:04;;;;;;;23.07;12.63;;;;;;;-13.32;78.85;98437.56;6191261;28;20200;-93
2024/01/09 06:14:07;;;;;;;26.10;12.87;;;;;;;-11.59;78.96;98712.94;6200551;28;20165;-94
2024/01/09 06:17:10;;;;;;;24.73;11.93;;;;;;;-12.29;77.73;98587.19;6222219;28;20200;-95
2024/01/09 06:20:13;;;;;;;23.40;12.40;;;;;;;-11.15;78.06;98800.66;6221692;28;20208;-95
2024/01/09 06:23:15;;;;;;;25.53;12.67;;;;;;;-11.20;78.81;98800.88;6185157;28;20201;-95
2024/01/09 06:26:18;;;;;;;25.00;11.53;;;;;;;-11.65;78.64;98754.38;6176304;28;20213;-95
2024/01/09 06:29:25;;;;;;;28.07;12.93;;;;;;;-11.55;79.21;98792.38;6192751;28;20214;-95
2024/01/09 06:32:28;;;;;;;23.67;10.73;;;;;;;-11.62;79.73;98773.06;6195892;28;20276;-93
2024/01/09 06:35:31;;;;;;;30.90;12.07;;;;;;;-12.68;82.04;98625.06;6211350;28;20202;-93
2024/01/09 06:38:34;;;;;;;20.67;11.50;;;;;;;-12.97;80.63;98595.69;6202146;28;20208;-92
2024/01/09 06:41:37;;;;;;;25.20;12.17;;;;;;;-12.63;80.92;98635.94;6174498;28;20344;-93
2024/01/09 06:44:40;;;;;;;24.73;12.67;;;;;;;-12.38;81.45;98715.16;6191564;28;20323;-94
2024/01/09 06:47:44;;;;;;;25.00;13.13;;;;;;;-10.76;81.59;98959.09;6194254;28;20305;-94
2024/01/09 06:50:48;;;;;;;25.40;12.80;;;;;;;-12.42;81.24;98747.84;6182772;28;20212;-92
2024/01/09 06:53:50;;;;;;;23.70;13.07;;;;;;;-13.12;80.57;98600.63;6187857;28;20285;-95
2024/01/09 06:56:53;;;;;;;25.33;12.43;;;;;;;-13.12;81.67;98594.69;6175533;28;20232;-94
2024/01/09 06:59:56;;;;;;;21.17;12.33;;;;;;;-11.40;82.50;98892.81;6199414;28;20204;-93
2024/01/09 07:02:59;;;;;;;25.00;11.50;;;;;;;-12.40;83.14;98789.69;6189511;28;20724;-93
2024/01/09 07:06:02;;;;;;;22.83;11.30;;;;;;;-11.18;83.70;98943.13;6185272;28;20773;-94
2024/01/09 07:09:06;;;;;;;21.97;11.50;;;;;;;-11.16;83.80;98935.31;6187993;28;20197;-93
2024/01/09 07:12:09;;;;;;;24.90;11.37;;;;;;;-12.39;84.11;98813.63;6183827;28;20288;-93
2024/01/09 07:15:14;;;;;;;27.40;13.30;;;;;;;-11.23;85.47;98945.09;6182042;28;20221;-93
2024/01/09 07:18:19;;;;;;;23.50;11.83;;;;;;;-12.63;84.42;98746.28;6191860;28;20217;-93
2024/01/09 07:21:24;;;;;;;23.90;11.13;;;;;;;-13.96;84.77;98555.81;6197137;28;20220;-93
2024/01/09 07:24:27;;;;;;;26.00;12.43;;;;;;;-12.14;82.04;98761.94;6205024;28;20280;-93
2024/01/09 07:27:30;;;;;;;25.13;13.53;;;;;;;-12.66;81.39;98680.53;6191047;28;20225;-93
2024/01/09 07:30:35;;;;;;;20.40;11.87;;;;;;;-11.34;81.39;98901.03;6172883;28;20217;-93
2024/01/09 07:33:38;;;;;;;26.63;12.43;;;;;;;-12.81;79.64;98651.31;6184502;28;20210;-94
2024/01/09 07:36:42;;;;;;;25.17;12.07;;;;;;;-10.19;80.28;99070.34;6201144;28;20235;-94
2024/01/09 07:39:48;;;;;;;21.33;11.03;;;;;;;-13.27;78.29;98568.88;6188659;28;20202;-93
2024/01/09 07:42:51;;;;;;;25.27;12.37;;;;;;;-11.62;78.73;98808.19;6176664;28;20208;-94
2024/01/09 07:46:03;;;;;;;23.57;12.77;;;;;;;-12.81;78.56;98647.91;6195692;28;20217;-92
2024/01/09 07:49:06;;;;;;;27.33;12.27;;;;;;;-10.97;78.34;98918.06;6185114;28;20204;-94
2024/01/09 07:52:09;;;;;;;24.50;12.20;;;;;;;-11.27;78.73;98905.00;6202816;28;20513;-93
2024/01/09 07:55:12;;;;;;;24.97;11.27;;;;;;;-11.45;78.93;98864.75;6186543;28;20284;-93
2024/01/09 07:58:16;;;;;;;24.53;12.40;;;;;;;-12.99;80.14;98580.38;6202658;28;20558;-93
2024/01/09 08:01:19;;;;;;;21.10;12.37;;;;;;;-12.86;77.42;98588.31;6177298;28;20208;-93
2024/01/09 08:04:23;;;;;;;21.70;11.63;;;;;;;-12.03;76.81;98751.97;6183063;28;20197;-94
2024/01/09 08:07:26;;;;;;;25.13;11.83;;;;;;;-11.72;77.14;98764.97;6185707;28;20763;-93
2024/01/09 08:10:32;;;;;;;23.87;11.77;;;;;;;-10.26;76.38;99005.44;6184002;28;20208;-93
2024/01/09 08:13:37;;;;;;;22.33;11.83;;;;;;;-11.11;76.09;98892.19;6175885;28;20193;-93
2024/01/09 08:16:40;;;;;;;25.90;11.07;;;;;;;-12.60;76.67;98612.72;6200805;28;20276;-94
2024/01/09 08:19:45;;;;;;;21.97;10.70;;;;;;;-11.54;77.55;98782.94;6179502;28;20669;-93
2024/01/09 08:22:48;;;;;;;22.27;12.43;;;;;;;-13.08;76.23;98516.72;6187711;28;20282;-93
2024/01/09 08:25:51;;;;;;;22.70;11.30;;;;;;;-10.63;75.94;98915.53;6191379;28;20217;-93
2024/01/09 08:28:54;;;;;;;25.93;12.90;;;;;;;-11.75;75.67;98725.72;6182394;28;20208;-93
2024/01/09 08:31:57;;;;;;;20.57;11.63;;;;;;;-9.66;74.92;99028.88;6173341;28;20274;-93
2024/01/09 08:35:01;;;;;;;21.17;10.17;;;;;;;-12.08;74.12;98625.53;6187224;28;20197;-94
2024/01/09 08:38:04;;;;;;;22.33;11.33;;;;;;;-10.99;74.02;98792.97;6181735;28;20196;-94
2024/01/09 08:41:07;;;;;;;22.67;11.70;;;;;;;-10.18;73.38;98914.84;6181942;28;20224;-93
2024/01/09 08:44:09;;;;;;;21.20;11.20;;;;;;;-11.81;72.42;98644.66;6190646;28;20292;-92
2024/01/09 08:47:16;;;;;;;23.23;12.10;;;;;;;-9.57;73.22;98972.56;6201685;28;20312;-92
2024/01/09 08:50:19;;;;;;;22.20;11.90;;;;;;;-10.40;71.83;98831.00;6199305;28;20197;-93
2024/01/09 08:53:28;;;;;;;23.17;10.90;;;;;;;-8.62;71.13;99120.41;6176865;28;20561;-93
2024/01/09 08:56:33;;;;;;;22.80;11.43;;;;;;;-9.96;73.35;98914.50;6185204;28;20272;-94
2024/01/09 08:59:36;;;;;;;22.47;11.57;;;;;;;-9.45;71.45;98971.91;6206776;28;20193;-93
2024/01/09 09:02:39;;;;;;;24.97;12.27;;;;;;;-11.22;72.98;98704.16;6176517;28;20678;-94
2024/01/09 09:05:42;;;;;;;18.57;10.80;;;;;;;-11.26;71.58;98718.91;6183207;28;20216;-94
2024/01/09 09:08:46;;;;;;;25.67;11.73;;;;;;;-10.33;72.85;98892.50;6173442;28;20197;-93
2024/01/09 09:11:49;;;;;;;21.47;11.13;;;;;;;-11.78;71.01;98569.13;6183184;28;20283;-94
2024/01/09 09:14:52;;;;;;;24.23;11.33;;;;;;;-9.22;71.05;98986.91;6178247;28;20211;-93
2024/01/09 09:17:57;;;;;;;23.83;12.13;;;;;;;-9.43;70.57;98955.41;6190242;28;20542;-94
2024/01/09 09:21:04;;;;;;;21.67;11.77;;;;;;;-10.51;70.54;98778.44;6182553;28;20294;-93
2024/01/09 09:24:07;;;;;;;21.17;11.00;;;;;;;-8.01;70.65;99186.69;6172270;28;20211;-94
2024/01/09 09:27:10;;;;;;;27.13;13.70;;;;;;;-9.17;70.41;98987.50;6189896;28;20380;-93
2024/01/09 09:30:13;;;;;;;28.13;12.30;;;;;;;-10.19;70.18;98805.81;6183106;28;20677;-95
2024/01/09 09:33:16;;;;;;;21.47;11.50;;;;;;;-7.86;69.58;99153.94;6175579;28;20333;-94
2024/01/09 09:36:25;;;;;;;26.67;12.53;;;;;;;-8.81;69.99;98985.53;6174216;28;20196;-95
2024/01/09 09:39:31;;;;;;;23.97;12.43;;;;;;;-10.40;67.88;98761.47;6177305;28;20201;-95
2024/01/09 09:42:36;;;;;;;23.43;12.53;;;;;;;-9.86;68.44;98851.22;6172603;28;20232;-95
2024/01/09 09:45:42;;;;;;;20.33;11.60;;;;;;;-8.72;66.06;98952.22;6181627;28;20781;-95
2024/01/09 09:48:49;;;;;;;23.93;12.07;;;;;;;-8.65;67.33;98968.22;6181232;28;20197;-95
2024/01/09 09:51:56;;;;;;;22.67;11.60;;;;;;;-10.39;66.08;98723.69;6184455;28;20688;-95
2024/01/09 09:55:00;;;;;;;25.53;12.53;;;;;;;-9.10;65.59;98869.28;6188503;28;20208;-95
2024/01/09 09:58:03;;;;;;;21.43;11.87;;;;;;;-10.22;63.93;98678.91;6187470;28;20229;-95
2024/01/09 10:01:13;;;;;;;22.40;11.27;;;;;;;-8.79;63.64;98904.44;6172310;28;20220;-95
2024/01/09 10:04:32;;;;;;;20.03;11.37;;;;;;;-9.50;63.96;98806.25;6201595;28;20215;-94
2024/01/09 10:07:40;;;;;;;19.27;10.50;;;;;;;-8.42;63.89;98970.28;6191496;28;20225;-94
2024/01/09 10:10:43;;;;;;;23.87;11.37;;;;;;;-8.32;64.65;99006.72;6187597;28;20620;-95
2024/01/09 10:13:49;;;;;;;25.10;11.80;;;;;;;-10.32;63.77;98688.94;6211366;28;20200;-95
2024/01/09 10:16:55;;;;;;;24.23;13.27;;;;;;;-10.26;63.83;98709.19;6195805;28;20669;-94
2024/01/09 10:20:00;;;;;;;24.47;12.50;;;;;;;-9.02;63.80;98867.06;6210507;28;20193;-94
2024/01/09 10:23:12;;;;;;;24.23;12.80;;;;;;;-10.44;64.59;98666.47;6195705;28;20199;-94
2024/01/09 10:26:17;;;;;;;21.23;12.13;;;;;;;-10.41;62.82;98661.13;6196849;28;20771;-94
2024/01/09 10:29:31;;;;;;;29.37;12.67;;;;;;;-9.79;62.68;98739.13;6206418;28;20223;-93
2024/01/09 10:32:41;;;;;;;19.60;11.70;;;;;;;-10.54;62.82;98627.53;6195101;28;20190;-94
2024/01/09 10:35:52;;;;;;;23.63;11.73;;;;;;;-8.21;62.08;98982.81;6197553;28;20197;-94
2024/01/09 10:39:09;;;;;;;24.63;12.80;;;;;;;-9.85;61.94;98663.91;6188451;28;20206;-93
2024/01/09 10:42:12;;;;;;;23.03;11.97;;;;;;;-7.60;62.49;99052.31;6202717;28;20288;-92
2024/01/09 10:45:23;;;;;;;22.63;11.97;;;;;;;-7.97;62.08;98954.66;6214674;28;20204;-93
2024/01/09 10:48:31;;;;;;;27.40;12.77;;;;;;;-8.48;62.14;98897.44;6228136;28;20236;-94
2024/01/09 10:51:42;;;;;;;22.30;11.63;;;;;;;-9.39;61.88;98766.00;6195035;28;20220;-94
2024/01/09 10:54:56;;;;;;;22.13;11.67;;;;;;;-8.01;61.51;98937.66;6184747;28;20236;-96
2024/01/09 10:58:07;;;;;;;26.17;12.40;;;;;;;-8.30;62.44;98888.56;6188443;28;20236;-95
2024/01/09 11:01:34;;;;;;;23.27;11.13;;;;;;;-9.80;62.72;98677.34;6188309;28;20220;-94
2024/01/09 11:04:39;;;;;;;22.87;12.37;;;;;;;-10.10;62.33;98636.16;6185074;28;20193;-95
2024/01/09 11:08:00;;;;;;;25.03;12.63;;;;;;;-7.99;61.85;98987.50;6170918;28;20224;-94
2024/01/09 11:11:12;;;;;;;22.40;11.87;;;;;;;-9.69;62.21;98700.78;6181138;28;20255;-94
2024/01/09 11:14:18;;;;;;;23.93;13.33;;;;;;;-7.87;62.20;98938.47;6193664;28;20196;-95
2024/01/09 11:17:24;;;;;;;22.93;12.20;;;;;;;-7.05;62.86;99068.78;6180318;28;20194;-94
2024/01/09 11:20:27;;;;;;;26.10;12.73;;;;;;;-7.18;64.07;99086.84;6192617;28;20211;-95
2024/01/09 11:23:43;;;;;;;26.20;12.30;;;;;;;-6.66;62.88;99111.22;6195835;28;20192;-96
2024/01/09 11:27:10;;;;;;;27.90;12.97;;;;;;;-9.10;62.39;98717.00;6206263;28;20205;-94
2024/01/09 11:30:18;;;;;;;22.93;12.40;;;;;;;-8.44;62.73;98811.09;6200881;28;20213;-94
2024/01/09 11:33:31;;;;;;;27.13;11.83;;;;;;;-9.43;62.78;98645.06;6168506;28;20193;-94
2024/01/09 11:36:39;;;;;;;24.77;13.80;;;;;;;-6.70;62.81;99074.28;6176884;28;20201;-95
2024/01/09 11:39:48;;;;;;;25.73;12.57;;;;;;;-8.05;62.78;98852.50;6192810;28;20207;-95
2024/01/09 11:42:52;;;;;;;24.93;13.27;;;;;;;-8.16;62.39;98815.34;6203952;28;20204;-95
2024/01/09 11:45:58;;;;;;;23.30;12.47;;;;;;;-8.19;62.33;98826.69;6192771;28;20196;-95
2024/01/09 11:49:03;;;;;;;26.27;12.70;;;;;;;-9.23;62.23;98662.72;6192809;28;20185;-94
2024/01/09 11:52:09;;;;;;;23.87;12.17;;;;;;;-9.04;62.39;98687.41;6189983;28;20201;-94
2024/01/09 11:55:12;;;;;;;24.97;12.63;;;;;;;-6.21;63.93;99133.31;6191934;28;20216;-95
2024/01/09 11:58:24;;;;;;;27.20;13.97;;;;;;;-7.36;62.54;98894.69;6198539;28;20193;-95
2024/01/09 12:01:34;;;;;;;25.77;13.33;;;;;;;-9.28;62.05;98573.63;6185115;28;20662;-95
2024/01/09 12:04:41;;;;;;;26.90;12.77;;;;;;;-8.86;61.31;98665.63;6185921;28;20193;-95
2024/01/09 12:07:44;;;;;;;25.90;12.70;;;;;;;-7.09;61.86;98901.59;6192804;28;20373;-94
2024/01/09 12:10:57;;;;;;;28.10;13.73;;;;;;;-6.78;61.69;98945.25;6208627;28;20212;-95
2024/01/09 12:14:07;;;;;;;26.30;12.80;;;;;;;-5.80;61.25;99102.03;6193050;28;20197;-95
2024/01/09 12:17:27;;;;;;;25.93;13.57;;;;;;;-8.82;62.10;98630.09;6188719;28;20279;-95
2024/01/09 12:20:38;;;;;;;22.83;12.13;;;;;;;-7.00;61.56;98908.75;6192835;28;20676;-95
2024/01/09 12:23:46;;;;;;;24.00;12.70;;;;;;;-8.83;61.97;98631.84;6193551;28;20280;-95
2024/01/09 12:27:13;;;;;;;24.80;13.13;;;;;;;-6.82;62.20;98956.75;6183976;28;20216;-95
2024/01/09 12:30:17;;;;;;;24.07;12.50;;;;;;;-8.45;61.95;98667.34;6208631;28;20684;-95
2024/01/09 12:33:28;;;;;;;26.20;13.27;;;;;;;-8.47;61.43;98664.88;6185521;28;20576;-95
2024/01/09 12:36:34;;;;;;;23.10;12.90;;;;;;;-6.73;61.05;98999.38;6193011;28;20213;-93
2024/01/09 12:39:39;;;;;;;22.50;12.87;;;;;;;-7.03;62.28;98901.19;6194139;28;20205;-95
2024/01/09 12:42:42;;;;;;;24.13;12.87;;;;;;;-6.84;62.90;98937.09;6187232;28;20209;-94
2024/01/09 12:45:45;;;;;;;21.90;12.07;;;;;;;-6.57;62.54;98940.41;6174386;28;20339;-95
2024/01/09 12:48:50;;;;;;;24.03;13.37;;;;;;;-7.28;62.21;98819.13;6168994;28;20224;-96
2024/01/09 12:51:58;;;;;;;21.43;12.30;;;;;;;-7.58;63.10;98760.72;6168872;28;20197;-95
2024/01/09 12:55:06;;;;;;;21.73;12.53;;;;;;;-6.43;62.84;98920.50;6184935;28;20193;-95
2024/01/09 12:58:27;;;;;;;;;;;;;;;;;;;;;
2024/01/09 13:01:44;;;;;;;22.13;12.83;;;;;;;-8.12;61.95;98696.16;6183682;28;20193;-95
2024/01/09 13:04:53;;;;;;;24.63;13.17;;;;;;;-6.78;60.83;98864.13;6176937;28;20196;-95
2024/01/09 13:08:16;;;;;;;24.70;12.90;;;;;;;-7.18;61.07;98802.06;6189508;28;20325;-96
2024/01/09 13:11:34;;;;;;;24.13;12.20;;;;;;;-7.94;60.95;98682.94;6193708;28;20227;-96
2024/01/09 13:14:37;;;;;;;25.27;13.33;;;;;;;-7.95;60.97;98682.13;6192458;28;20275;-96
2024/01/09 13:17:49;;;;;;;25.87;12.27;;;;;;;-8.22;60.71;98620.16;6184330;28;20205;-94
2024/01/09 13:21:03;;;;;;;21.63;11.77;;;;;;;-7.75;61.61;98708.41;6168840;28;20288;-96
2024/01/09 13:24:09;;;;;;;27.70;13.63;;;;;;;-6.60;62.64;98898.31;6168260;28;20201;-95
2024/01/09 13:27:15;;;;;;;25.23;14.33;;;;;;;-6.91;63.25;98845.97;6171911;28;20232;-94
2024/01/09 13:30:25;;;;;;;25.37;14.00;;;;;;;-6.67;62.06;98889.31;6188599;28;20193;-95
2024/01/09 13:33:48;;;;;;;26.13;13.63;;;;;;;-6.87;62.98;98844.03;6175689;28;20718;-95
2024/01/09 13:36:55;;;;;;;28.63;13.63;;;;;;;-8.46;63.44;98603.69;6172762;28;20189;-95
2024/01/09 13:39:58;;;;;;;25.27;13.83;;;;;;;-7.90;64.25;98684.41;6172752;28;20193;-95
2024/01/09 13:43:05;;;;;;;26.73;14.83;;;;;;;-7.97;64.58;98696.91;6172443;28;20196;-95
2024/01/09 13:46:14;;;;;;;28.30;14.20;;;;;;;-8.11;63.88;98653.03;6172896;28;20651;-95
2024/01/09 13:49:17;;;;;;;22.67;13.20;;;;;;;-7.02;64.04;98854.47;6172342;28;20702;-95
2024/01/09 13:52:26;;;;;;;21.33;12.13;;;;;;;-7.05;64.06;98857.25;6188289;28;20204;-95
2024/01/09 13:55:32;;;;;;;28.27;13.23;;;;;;;-7.44;64.91;98783.06;6191814;28;20237;-94
2024/01/09 13:58:38;;;;;;;25.93;13.57;;;;;;;-8.06;64.44;98653.56;6188361;28;20188;-96
2024/01/09 14:01:43;;;;;;;23.83;12.33;;;;;;;-6.68;64.58;98866.94;6188379;28;20572;-95
2024/01/09 14:04:54;;;;;;;25.10;13.10;;;;;;;-8.02;63.77;98674.88;6204544;28;20565;-95
2024/01/09 14:08:00;;;;;;;21.50;11.23;;;;;;;-6.92;63.76;98831.38;6199094;28;20250;-95